Time;durP1;ratioP1;P1;durP2;ratioP2;P2;SDS_P1;SDS_P2;PMS_P1;PMS_P2;Temp;Humidity;BMP_temperature;BMP_pressure;BME280_temperature;BME280_humidity;BME280_pressure;Samples;Min_cycle;Max_cycle;Signal;HPM_P1;HPM_P2
2022/12/25 00:01:32;;;;;;;7.20;2.55;;;11.20;99.90;;;;;;4944577;28;20187;-77
2022/12/25 00:03:58;;;;;;;5.75;2.40;;;11.20;99.90;;;;;;4976228;28;20176;-77
2022/12/25 00:06:23;;;;;;;4.55;2.38;;;11.20;99.90;;;;;;4950004;29;20209;-77
2022/12/25 00:08:51;;;;;;;5.07;2.38;;;11.10;99.90;;;;;;4943436;29;20204;-77
2022/12/25 00:11:18;;;;;;;6.28;2.42;;;11.20;99.90;;;;;;4962469;28;20279;-77
2022/12/25 00:13:45;;;;;;;5.07;2.35;;;11.20;99.90;;;;;;4949635;28;20244;-76
2022/12/25 00:16:19;;;;;;;7.97;2.67;;;11.10;99.90;;;;;;4949966;28;20207;-76
2022/12/25 00:18:47;;;;;;;4.65;2.40;;;11.20;99.90;;;;;;4958838;28;20200;-76
2022/12/25 00:21:16;;;;;;;6.07;2.47;;;11.20;99.90;;;;;;4940409;29;20205;-77
2022/12/25 00:23:44;;;;;;;5.85;2.47;;;11.20;99.90;;;;;;4948711;29;20197;-76
2022/12/25 00:26:16;;;;;;;7.88;2.63;;;11.20;99.90;;;;;;4948796;28;20173;-77
2022/12/25 00:28:42;;;;;;;3.70;2.30;;;11.20;99.90;;;;;;4946153;28;20172;-77
2022/12/25 00:31:13;;;;;;;3.35;2.20;;;11.20;99.90;;;;;;4954635;29;20199;-77
2022/12/25 00:33:41;;;;;;;5.40;2.70;;;11.20;99.90;;;;;;4948284;29;20339;-77
2022/12/25 00:36:09;;;;;;;6.57;2.72;;;11.20;99.90;;;;;;4943496;28;20164;-76
2022/12/25 00:38:36;;;;;;;6.18;2.30;;;11.20;99.90;;;;;;4959023;28;20200;-77
2022/12/25 00:41:07;;;;;;;5.25;2.28;;;11.20;99.90;;;;;;4946955;29;20173;-76
2022/12/25 00:43:33;;;;;;;5.93;2.35;;;11.20;99.90;;;;;;4956775;28;20271;-75
2022/12/25 00:46:02;;;;;;;4.05;2.20;;;11.20;99.90;;;;;;4958906;28;20380;-77
2022/12/25 00:48:29;;;;;;;4.10;2.13;;;11.20;99.90;;;;;;4958779;28;20346;-76
2022/12/25 00:50:56;;;;;;;4.32;1.90;;;11.20;99.90;;;;;;4956589;28;20203;-77
2022/12/25 00:53:25;;;;;;;5.25;2.15;;;11.20;99.90;;;;;;4940511;29;20184;-76
2022/12/25 00:55:57;;;;;;;5.22;2.08;;;11.20;99.90;;;;;;4951314;29;20169;-77
2022/12/25 00:58:24;;;;;;;6.35;2.30;;;11.20;99.90;;;;;;4950731;28;20168;-77
2022/12/25 01:00:50;;;;;;;5.65;2.08;;;11.20;99.90;;;;;;4959663;28;20180;-77
2022/12/25 01:03:17;;;;;;;3.65;2.00;;;11.20;99.90;;;;;;4958799;28;20219;-77
2022/12/25 01:05:43;;;;;;;4.78;2.25;;;11.20;99.90;;;;;;4958026;28;20211;-77
2022/12/25 01:08:11;;;;;;;3.72;2.10;;;11.20;99.90;;;;;;4941425;29;20176;-77
2022/12/25 01:10:39;;;;;;;7.30;2.30;;;11.20;99.90;;;;;;4958289;28;20286;-77
2022/12/25 01:13:05;;;;;;;6.60;2.65;;;11.20;99.90;;;;;;4948848;28;20184;-76
2022/12/25 01:15:30;;;;;;;7.53;2.33;;;11.20;99.90;;;;;;4952282;28;20175;-77
2022/12/25 01:17:58;;;;;;;4.55;1.90;;;11.20;99.90;;;;;;4940825;29;20195;-77
2022/12/25 01:20:24;;;;;;;4.95;1.98;;;11.20;99.90;;;;;;4943474;29;20187;-76
2022/12/25 01:22:49;;;;;;;5.10;2.08;;;11.20;99.90;;;;;;4945442;28;20180;-76
2022/12/25 01:25:17;;;;;;;4.97;1.90;;;11.20;99.90;;;;;;4949344;28;20184;-77
2022/12/25 01:27:43;;;;;;;4.68;1.70;;;11.20;99.90;;;;;;4958752;28;20200;-77
2022/12/25 01:30:09;;;;;;;5.57;2.10;;;11.30;99.90;;;;;;4953786;28;20215;-77
2022/12/25 01:32:34;;;;;;;4.65;1.80;;;11.30;99.90;;;;;;4958309;28;20200;-77
2022/12/25 01:35:02;;;;;;;5.18;1.80;;;11.40;99.90;;;;;;4939755;29;20177;-75
2022/12/25 01:37:28;;;;;;;4.68;1.70;;;11.40;99.90;;;;;;4954736;28;20314;-76
2022/12/25 01:39:54;;;;;;;5.80;2.10;;;11.40;99.90;;;;;;5007193;23;20318;-76
2022/12/25 01:42:22;;;;;;;4.05;1.80;;;11.50;99.90;;;;;;4961911;28;20200;-76
2022/12/25 01:44:48;;;;;;;6.88;2.13;;;11.50;99.90;;;;;;4994665;28;20303;-77
2022/12/25 01:47:16;;;;;;;5.40;2.15;;;11.50;99.90;;;;;;4987151;28;20211;-77
2022/12/25 01:49:47;;;;;;;5.57;2.10;;;11.50;99.90;;;;;;4971044;28;20207;-76
2022/12/25 01:52:20;;;;;;;4.55;1.85;;;11.60;99.90;;;;;;4976277;28;20266;-77
2022/12/25 01:54:54;;;;;;;3.03;1.50;;;11.70;99.90;;;;;;4978599;28;20199;-77
2022/12/25 01:57:27;;;;;;;4.43;1.63;;;11.70;99.90;;;;;;4990676;28;20416;-77
2022/12/25 01:59:57;;;;;;;6.57;2.00;;;11.70;99.90;;;;;;4977362;28;20207;-76
2022/12/25 02:02:23;;;;;;;4.60;2.10;;;11.80;99.90;;;;;;4990096;28;20176;-76
2022/12/25 02:04:57;;;;;;;5.68;1.80;;;11.70;99.90;;;;;;4971266;28;20227;-76
2022/12/25 02:07:29;;;;;;;5.25;1.85;;;11.90;99.90;;;;;;4977606;28;20175;-76
2022/12/25 02:09:57;;;;;;;4.50;1.92;;;11.80;99.90;;;;;;4977462;28;20195;-73
2022/12/25 02:12:26;;;;;;;6.13;1.95;;;11.80;99.90;;;;;;4974646;28;20267;-76
2022/12/25 02:14:54;;;;;;;4.05;1.90;;;12.00;99.90;;;;;;4965932;28;20267;-76
2022/12/25 02:17:35;;;;;;;6.30;1.80;;;12.00;99.90;;;;;;4980462;28;20179;-76
2022/12/25 02:20:26;;;;;;;4.68;1.92;;;11.90;99.90;;;;;;4974545;28;20180;-76
2022/12/25 02:23:02;;;;;;;5.95;1.98;;;12.00;99.90;;;;;;4965046;28;20188;-76
2022/12/25 02:25:52;;;;;;;4.82;1.90;;;12.00;99.90;;;;;;4945957;28;20252;-76
2022/12/25 02:28:31;;;;;;;4.53;1.90;;;12.00;99.90;;;;;;4976065;28;20225;-76
2022/12/25 02:31:16;;;;;;;5.63;2.05;;;12.00;99.90;;;;;;4972497;28;20186;-76
2022/12/25 02:34:04;;;;;;;4.68;1.80;;;12.00;99.90;;;;;;4961751;28;20200;-77
2022/12/25 02:36:41;;;;;;;6.93;2.05;;;12.00;99.90;;;;;;4962012;28;20171;-76
2022/12/25 02:42:16;;;;;;;5.25;1.80;;;12.00;99.90;;;;;;4985112;28;20198;-76
2022/12/25 03:07:25;;;;;;;4.55;1.80;;;11.80;99.90;;;;;;4978826;28;20239;-76
2022/12/25 03:13:15;;;;;;;3.92;1.73;;;11.70;99.90;;;;;;4990243;28;20215;-77
2022/12/25 03:18:30;;;;;;;3.58;1.70;;;11.70;99.90;;;;;;4986836;28;20259;-77
2022/12/25 03:26:55;;;;;;;4.95;2.08;;;11.80;99.90;;;;;;4937172;29;20202;-77
2022/12/25 03:32:35;;;;;;;3.80;1.80;;;11.80;99.90;;;;;;4977568;28;20295;-77
2022/12/25 03:35:24;;;;;;;5.95;1.85;;;11.80;99.90;;;;;;4975835;28;20195;-77
2022/12/25 04:37:16;;;;;;;5.28;1.60;;;12.00;99.90;;;;;;4992844;28;20234;-77
2022/12/25 04:39:41;;;;;;;5.05;1.50;;;12.00;99.90;;;;;;4959849;28;20192;-75
2022/12/25 04:42:07;;;;;;;4.30;1.52;;;12.00;99.90;;;;;;4965204;28;20187;-74
2022/12/25 04:44:32;;;;;;;3.92;1.50;;;12.00;99.90;;;;;;4978052;28;20190;-75
2022/12/25 04:47:00;;;;;;;6.43;1.60;;;12.00;99.90;;;;;;4978664;28;20273;-74
2022/12/25 04:49:30;;;;;;;5.00;1.77;;;12.10;99.90;;;;;;4977077;28;20211;-74
2022/12/25 04:51:56;;;;;;;4.00;1.90;;;12.10;99.90;;;;;;4978435;28;20207;-74
2022/12/25 04:54:22;;;;;;;4.70;1.70;;;12.10;99.90;;;;;;4960808;28;20220;-74
2022/12/25 04:56:48;;;;;;;3.80;1.40;;;12.10;99.90;;;;;;4968179;28;20200;-74
2022/12/25 04:59:15;;;;;;;4.40;1.45;;;12.10;99.90;;;;;;4971388;28;20171;-73
2022/12/25 05:01:41;;;;;;;4.13;1.58;;;12.00;99.90;;;;;;4978390;28;20199;-75
2022/12/25 05:04:09;;;;;;;5.35;1.75;;;12.10;99.90;;;;;;4978799;28;20183;-75
2022/12/25 05:06:34;;;;;;;6.57;1.83;;;12.10;99.90;;;;;;4976876;28;20271;-74
2022/12/25 05:09:00;;;;;;;4.53;1.65;;;12.10;99.90;;;;;;4960188;28;20294;-76
2022/12/25 05:11:26;;;;;;;3.90;1.38;;;12.10;99.90;;;;;;4959204;28;20286;-76
2022/12/25 05:13:55;;;;;;;4.97;1.48;;;12.20;99.90;;;;;;4976769;28;20187;-75
2022/12/25 05:16:25;;;;;;;6.15;1.73;;;12.10;99.90;;;;;;4966254;28;20283;-75
2022/12/25 05:18:53;;;;;;;5.90;2.47;;;12.20;99.90;;;;;;4960119;28;20195;-75
2022/12/25 05:21:21;;;;;;;4.38;1.50;;;12.20;99.90;;;;;;4965857;28;20206;-75
2022/12/25 05:23:51;;;;;;;5.43;1.55;;;12.10;99.90;;;;;;4968176;28;20241;-76
2022/12/25 05:26:20;;;;;;;4.40;1.65;;;12.10;99.90;;;;;;4978578;28;20250;-75
2022/12/25 05:28:45;;;;;;;3.58;1.52;;;12.20;99.90;;;;;;4985213;28;20171;-75
2022/12/25 05:31:11;;;;;;;4.25;1.60;;;12.10;99.90;;;;;;4976023;28;20234;-75
2022/12/25 05:33:37;;;;;;;5.28;1.90;;;12.10;99.90;;;;;;4976577;28;20187;-75
2022/12/25 05:36:04;;;;;;;6.18;1.60;;;12.10;99.90;;;;;;4961258;28;20208;-76
2022/12/25 05:38:31;;;;;;;3.78;1.50;;;12.10;99.90;;;;;;4970222;28;20225;-76
2022/12/25 05:40:57;;;;;;;4.53;1.70;;;12.10;99.90;;;;;;4978444;28;20179;-75
2022/12/25 05:43:25;;;;;;;3.65;1.63;;;12.10;99.90;;;;;;4965954;28;20227;-76
2022/12/25 05:45:51;;;;;;;4.78;1.88;;;12.20;99.90;;;;;;4969712;28;20491;-74
2022/12/25 05:48:19;;;;;;;4.57;1.92;;;12.10;99.90;;;;;;4978158;28;20273;-76
2022/12/25 05:50:47;;;;;;;5.07;2.10;;;12.10;99.90;;;;;;4973434;28;20206;-76
2022/12/25 05:53:14;;;;;;;5.68;2.15;;;12.10;99.90;;;;;;4971565;28;20168;-76
2022/12/25 05:55:43;;;;;;;2.63;1.40;;;12.10;99.90;;;;;;4963817;28;20175;-75
2022/12/25 05:58:11;;;;;;;5.72;1.60;;;12.00;99.90;;;;;;4974191;28;20175;-76
2022/12/25 06:00:42;;;;;;;4.88;1.58;;;12.00;99.90;;;;;;4981500;28;20285;-76
2022/12/25 06:03:08;;;;;;;4.18;1.75;;;12.00;99.90;;;;;;4985480;28;20283;-76
2022/12/25 06:05:38;;;;;;;5.18;1.40;;;12.10;99.90;;;;;;4971502;28;20290;-76
2022/12/25 06:08:09;;;;;;;7.10;1.73;;;12.00;99.90;;;;;;4981299;28;20175;-75
2022/12/25 06:10:35;;;;;;;4.57;1.77;;;12.10;99.90;;;;;;4979504;28;20242;-74
2022/12/25 06:13:00;;;;;;;5.03;1.75;;;12.00;99.90;;;;;;4976839;28;20179;-76
2022/12/25 06:15:26;;;;;;;4.55;1.45;;;12.00;99.90;;;;;;4980431;28;20237;-75
2022/12/25 06:17:54;;;;;;;3.22;1.60;;;12.00;99.90;;;;;;4994888;28;20167;-76
2022/12/25 06:20:23;;;;;;;3.70;1.60;;;12.00;99.90;;;;;;4962307;28;20212;-75
2022/12/25 06:22:48;;;;;;;3.75;1.77;;;12.10;99.90;;;;;;4962106;28;20415;-75
2022/12/25 06:25:14;;;;;;;7.15;1.90;;;12.10;99.90;;;;;;4975747;28;20183;-76
2022/12/25 06:27:39;;;;;;;4.57;2.00;;;12.10;99.90;;;;;;4981535;28;20203;-76
2022/12/25 06:30:06;;;;;;;2.90;2.03;;;12.10;99.90;;;;;;4966708;28;20211;-76
2022/12/25 06:32:31;;;;;;;4.70;1.98;;;12.10;99.90;;;;;;4976234;28;20265;-75
2022/12/25 06:34:57;;;;;;;5.47;2.25;;;12.10;99.90;;;;;;4980993;28;20171;-76
2022/12/25 06:37:23;;;;;;;4.55;2.28;;;12.10;99.90;;;;;;4978645;28;20190;-76
2022/12/25 06:39:48;;;;;;;5.05;2.13;;;12.10;99.90;;;;;;4980679;28;20229;-76
2022/12/25 06:42:14;;;;;;;3.22;2.10;;;12.10;99.90;;;;;;4979623;28;20179;-75
2022/12/25 06:44:43;;;;;;;3.65;2.05;;;12.10;99.90;;;;;;4964443;28;20176;-76
2022/12/25 06:47:08;;;;;;;3.45;2.28;;;12.10;99.90;;;;;;4980623;28;20171;-75
2022/12/25 06:49:36;;;;;;;6.22;2.53;;;12.10;99.90;;;;;;4979768;28;20298;-75
2022/12/25 06:52:02;;;;;;;5.53;2.42;;;12.10;99.90;;;;;;4971330;28;20218;-76
2022/12/25 06:54:28;;;;;;;5.07;2.22;;;12.10;99.90;;;;;;4980044;28;20191;-75
2022/12/25 06:56:53;;;;;;;4.85;2.75;;;12.10;99.90;;;;;;4971804;28;20184;-76
2022/12/25 06:59:19;;;;;;;3.05;2.13;;;12.10;99.90;;;;;;4980104;28;20302;-75
2022/12/25 07:01:47;;;;;;;3.65;2.58;;;12.10;99.90;;;;;;4980298;28;20200;-77
2022/12/25 07:04:18;;;;;;;3.78;2.22;;;12.10;99.90;;;;;;4973260;28;20191;-75
2022/12/25 07:06:44;;;;;;;4.25;2.38;;;12.10;99.90;;;;;;4980339;28;20183;-76
2022/12/25 07:09:14;;;;;;;4.65;2.72;;;12.10;99.90;;;;;;4980120;28;20214;-76
2022/12/25 07:11:39;;;;;;;3.40;2.40;;;12.00;99.90;;;;;;4996824;28;20266;-76
2022/12/25 07:14:05;;;;;;;2.50;2.10;;;12.00;99.90;;;;;;4966350;28;20196;-75
2022/12/25 07:16:35;;;;;;;3.65;2.38;;;12.00;99.90;;;;;;4973374;28;20263;-76
2022/12/25 07:19:03;;;;;;;4.03;2.50;;;12.00;99.90;;;;;;4995922;28;20175;-77
2022/12/25 07:21:31;;;;;;;3.70;2.30;;;12.00;99.90;;;;;;4979921;28;20199;-75
2022/12/25 07:23:59;;;;;;;2.83;1.90;;;12.00;99.90;;;;;;4979437;28;20179;-76
2022/12/25 07:26:27;;;;;;;4.80;2.42;;;12.00;99.90;;;;;;4980169;28;20266;-76
2022/12/25 07:28:56;;;;;;;4.32;2.35;;;12.00;99.90;;;;;;4961480;28;20207;-76
2022/12/25 07:31:22;;;;;;;2.65;1.92;;;11.90;99.90;;;;;;4965883;28;20258;-75
2022/12/25 07:33:47;;;;;;;2.67;1.88;;;12.00;99.90;;;;;;4969395;28;20226;-76
2022/12/25 07:36:16;;;;;;;3.22;1.95;;;12.00;99.90;;;;;;4980041;28;20175;-76
2022/12/25 07:38:42;;;;;;;2.92;1.90;;;12.00;99.90;;;;;;4971928;28;20207;-75
2022/12/25 07:41:09;;;;;;;2.22;1.80;;;12.10;99.90;;;;;;4979746;28;20175;-75
2022/12/25 07:43:35;;;;;;;3.25;2.03;;;12.00;99.90;;;;;;4976443;28;20203;-76
2022/12/25 07:46:01;;;;;;;3.45;1.88;;;12.00;99.90;;;;;;4977781;28;20186;-77
2022/12/25 07:48:27;;;;;;;3.90;2.10;;;12.00;99.90;;;;;;4970443;28;20190;-76
2022/12/25 07:51:01;;;;;;;4.50;1.90;;;12.00;99.90;;;;;;4975753;28;20282;-76
2022/12/25 07:53:27;;;;;;;2.90;1.73;;;12.00;99.90;;;;;;4974193;28;20186;-76
2022/12/25 07:56:06;;;;;;;3.58;1.98;;;12.00;99.90;;;;;;4969818;28;20207;-77
2022/12/25 07:58:33;;;;;;;3.42;1.90;;;12.00;99.90;;;;;;4979327;28;20167;-76
2022/12/25 08:01:11;;;;;;;3.17;1.75;;;12.00;99.90;;;;;;4976520;28;20215;-77
2022/12/25 08:03:37;;;;;;;2.25;1.65;;;12.00;99.90;;;;;;4976430;28;20300;-77
2022/12/25 08:06:07;;;;;;;4.00;2.00;;;12.00;99.90;;;;;;4974406;28;20200;-76
2022/12/25 08:08:36;;;;;;;3.80;1.90;;;12.10;99.90;;;;;;4978447;28;20186;-76
2022/12/25 08:11:07;;;;;;;3.72;2.20;;;12.10;99.90;;;;;;4978686;28;20242;-77
2022/12/25 08:13:33;;;;;;;3.35;1.95;;;12.10;99.90;;;;;;4979537;28;20171;-78
2022/12/25 08:16:00;;;;;;;5.45;2.00;;;12.10;99.90;;;;;;4974859;28;20282;-77
2022/12/25 08:18:30;;;;;;;2.65;1.98;;;12.10;99.90;;;;;;4973394;28;20172;-77
2022/12/25 08:21:02;;;;;;;3.20;2.00;;;12.10;99.90;;;;;;4966531;28;20185;-77
2022/12/25 08:23:29;;;;;;;4.28;1.92;;;12.10;99.90;;;;;;4978265;28;20213;-76
2022/12/25 08:26:02;;;;;;;4.78;2.17;;;12.10;99.90;;;;;;4995362;28;20175;-77
2022/12/25 08:28:29;;;;;;;4.15;1.98;;;12.10;99.90;;;;;;4975804;28;20179;-77
2022/12/25 08:30:57;;;;;;;3.45;2.30;;;12.10;99.90;;;;;;4975879;28;20196;-74
2022/12/25 08:33:23;;;;;;;3.65;2.00;;;12.10;99.90;;;;;;4967599;28;20263;-75
2022/12/25 08:35:51;;;;;;;5.10;2.00;;;12.00;99.90;;;;;;4974551;28;20179;-76
2022/12/25 08:38:16;;;;;;;5.57;2.80;;;12.00;99.90;;;;;;4968221;28;20207;-75
2022/12/25 08:40:42;;;;;;;4.88;2.20;;;12.00;99.90;;;;;;4978961;28;20179;-74
2022/12/25 08:43:07;;;;;;;6.13;2.45;;;12.00;99.90;;;;;;4978269;28;20195;-74
2022/12/25 08:45:33;;;;;;;3.60;1.88;;;12.10;99.90;;;;;;4989373;28;20211;-76
2022/12/25 08:47:59;;;;;;;4.20;2.15;;;12.00;99.90;;;;;;4969031;28;20234;-75
2022/12/25 08:50:26;;;;;;;3.05;2.15;;;12.00;99.90;;;;;;4987581;28;20202;-78
2022/12/25 08:52:52;;;;;;;3.45;2.03;;;12.10;99.90;;;;;;4976363;28;20203;-77
2022/12/25 08:55:18;;;;;;;3.88;1.80;;;12.10;99.90;;;;;;4975997;28;20277;-77
2022/12/25 08:57:45;;;;;;;4.90;2.35;;;12.00;99.90;;;;;;4977039;28;20190;-78
2022/12/25 09:00:11;;;;;;;3.80;1.73;;;12.10;99.90;;;;;;4966805;28;20227;-77
2022/12/25 09:02:39;;;;;;;3.95;1.75;;;12.10;99.90;;;;;;4970330;28;20172;-77
2022/12/25 09:05:06;;;;;;;5.38;2.78;;;12.10;99.90;;;;;;4963026;28;20195;-76
2022/12/25 09:07:31;;;;;;;4.00;2.70;;;12.10;99.90;;;;;;4965176;28;20193;-76
2022/12/25 09:09:57;;;;;;;3.90;2.05;;;12.10;99.90;;;;;;4978614;28;20203;-77
2022/12/25 09:12:24;;;;;;;3.15;1.98;;;12.00;99.90;;;;;;4971418;28;20171;-77
2022/12/25 09:14:50;;;;;;;3.08;1.90;;;12.00;99.90;;;;;;4963133;28;20183;-78
2022/12/25 09:17:20;;;;;;;4.22;2.20;;;12.00;99.90;;;;;;4959102;28;20234;-76
2022/12/25 09:19:48;;;;;;;4.55;2.10;;;12.00;99.90;;;;;;4978346;28;20183;-76
2022/12/25 09:22:14;;;;;;;2.88;1.80;;;12.00;99.90;;;;;;4995966;28;20294;-77
2022/12/25 09:24:40;;;;;;;3.60;1.63;;;12.00;99.90;;;;;;4979237;28;20262;-77
2022/12/25 09:27:06;;;;;;;3.35;1.90;;;11.90;99.90;;;;;;4981688;28;20302;-78
2022/12/25 09:29:34;;;;;;;3.70;2.17;;;11.90;99.90;;;;;;4979498;28;20211;-78
2022/12/25 09:32:00;;;;;;;4.00;2.00;;;11.90;99.90;;;;;;4968039;28;20198;-77
2022/12/25 09:34:25;;;;;;;4.40;2.00;;;11.90;99.90;;;;;;4999719;28;20174;-78
2022/12/25 09:36:51;;;;;;;4.22;2.03;;;11.90;99.90;;;;;;4984227;28;20263;-77
2022/12/25 09:39:16;;;;;;;3.83;1.88;;;11.90;99.90;;;;;;4962724;28;20226;-77
2022/12/25 09:41:56;;;;;;;3.90;1.85;;;11.90;99.90;;;;;;4968883;28;20275;-77
2022/12/25 09:44:29;;;;;;;3.90;2.00;;;11.90;99.90;;;;;;4969100;28;20191;-77
2022/12/25 09:47:01;;;;;;;3.08;2.10;;;11.90;99.90;;;;;;4977830;28;20186;-77
2022/12/25 09:49:37;;;;;;;3.22;2.00;;;12.00;99.90;;;;;;4972960;28;20414;-78
2022/12/25 09:52:16;;;;;;;3.70;1.90;;;12.00;99.90;;;;;;4983141;28;20183;-78
2022/12/25 09:54:50;;;;;;;4.43;2.30;;;12.00;99.90;;;;;;4964312;28;20200;-76
2022/12/25 09:57:16;;;;;;;2.78;1.80;;;12.00;99.90;;;;;;4979506;28;20189;-77
2022/12/25 09:59:43;;;;;;;3.25;2.05;;;12.00;99.90;;;;;;4976392;28;20200;-78
2022/12/25 10:02:28;;;;;;;3.45;1.85;;;12.00;99.90;;;;;;4980334;28;20183;-77
2022/12/25 10:05:15;;;;;;;4.70;1.90;;;12.00;99.90;;;;;;4981640;28;20207;-77
2022/12/25 10:07:53;;;;;;;3.55;1.90;;;12.00;99.90;;;;;;4975866;28;20206;-76
2022/12/25 10:10:40;;;;;;;3.35;1.70;;;12.10;99.90;;;;;;4962483;28;20511;-77
2022/12/25 10:13:21;;;;;;;3.03;1.70;;;12.10;99.90;;;;;;4966896;28;20334;-77
2022/12/25 10:16:19;;;;;;;4.47;1.70;;;12.10;99.90;;;;;;4990938;28;20278;-78
2022/12/25 10:19:03;;;;;;;2.75;1.73;;;12.10;99.90;;;;;;4990861;28;20172;-78
2022/12/25 10:21:30;;;;;;;2.08;1.50;;;12.10;99.90;;;;;;4972015;28;20211;-77
2022/12/25 10:24:02;;;;;;;3.40;1.88;;;12.00;99.90;;;;;;4972812;28;20199;-77
2022/12/25 10:26:33;;;;;;;3.97;2.17;;;12.10;99.90;;;;;;4966726;28;20204;-78
2022/12/25 10:29:13;;;;;;;2.65;1.85;;;12.10;99.90;;;;;;4962129;28;20172;-76
2022/12/25 10:31:40;;;;;;;2.80;1.73;;;12.00;99.90;;;;;;4965246;28;20191;-76
2022/12/25 10:34:08;;;;;;;2.75;1.70;;;12.00;99.90;;;;;;4962313;28;20160;-77
2022/12/25 10:36:33;;;;;;;3.13;1.52;;;12.00;99.90;;;;;;4977236;28;20209;-77
2022/12/25 10:38:59;;;;;;;3.70;1.90;;;12.00;99.90;;;;;;4970334;28;20258;-77
2022/12/25 10:41:27;;;;;;;3.38;1.90;;;12.00;99.90;;;;;;4978333;28;20210;-77
2022/12/25 10:43:56;;;;;;;3.45;1.90;;;11.90;99.90;;;;;;4980561;28;20196;-76
2022/12/25 10:46:26;;;;;;;4.38;2.03;;;12.00;99.90;;;;;;4980694;28;20171;-77
2022/12/25 10:48:59;;;;;;;5.00;2.25;;;11.90;99.90;;;;;;4980007;28;20206;-78
2022/12/25 10:51:47;;;;;;;4.97;2.30;;;11.90;99.90;;;;;;4961481;28;20168;-77
2022/12/25 10:54:30;;;;;;;6.18;2.67;;;11.90;99.90;;;;;;4973896;28;20195;-77
2022/12/25 10:57:02;;;;;;;3.08;1.95;;;11.90;99.90;;;;;;4955008;28;20172;-77
2022/12/25 10:59:34;;;;;;;2.80;1.92;;;11.90;99.90;;;;;;4977630;28;20214;-77
2022/12/25 11:02:16;;;;;;;4.25;1.90;;;11.90;99.90;;;;;;4969916;28;20264;-77
2022/12/25 11:04:45;;;;;;;3.45;1.98;;;11.90;99.90;;;;;;4980283;28;20306;-78
2022/12/25 11:07:19;;;;;;;4.88;2.30;;;11.80;99.90;;;;;;4976047;28;20179;-78
2022/12/25 11:09:55;;;;;;;3.70;2.13;;;11.90;99.90;;;;;;4986822;28;20199;-77
2022/12/25 11:12:31;;;;;;;3.60;2.13;;;11.90;99.90;;;;;;4969049;28;20211;-77
2022/12/25 11:15:00;;;;;;;3.60;2.20;;;11.90;99.90;;;;;;4964712;28;20194;-75
2022/12/25 11:17:27;;;;;;;3.05;2.33;;;12.00;99.90;;;;;;4961669;28;20168;-78
2022/12/25 11:19:56;;;;;;;6.45;2.88;;;11.90;99.90;;;;;;4977723;28;20179;-77
2022/12/25 11:22:27;;;;;;;2.95;1.92;;;11.90;99.90;;;;;;4977252;28;20175;-77
2022/12/25 11:24:55;;;;;;;5.47;2.50;;;11.90;99.90;;;;;;4980371;28;20179;-77
2022/12/25 11:27:32;;;;;;;6.15;2.70;;;11.90;99.90;;;;;;4977508;28;20211;-77
2022/12/25 11:30:07;;;;;;;5.63;2.22;;;12.00;99.90;;;;;;4968173;28;20214;-75
2022/12/25 11:32:44;;;;;;;3.97;2.38;;;12.00;99.90;;;;;;4974838;28;20186;-76
2022/12/25 11:35:17;;;;;;;3.58;2.17;;;12.10;99.90;;;;;;4979145;28;20188;-77
2022/12/25 11:37:52;;;;;;;3.45;2.47;;;12.20;99.90;;;;;;4979603;28;20285;-78
2022/12/25 11:40:24;;;;;;;5.70;2.42;;;12.10;99.90;;;;;;4966266;28;20180;-76
2022/12/25 11:43:02;;;;;;;3.83;2.47;;;12.20;99.90;;;;;;4963327;28;20203;-78
2022/12/25 11:45:40;;;;;;;4.07;2.65;;;12.30;99.90;;;;;;4979800;28;20175;-77
2022/12/25 11:48:22;;;;;;;3.33;2.60;;;12.30;99.90;;;;;;4968515;28;20289;-77
2022/12/25 11:50:55;;;;;;;6.13;3.00;;;12.40;99.90;;;;;;4975795;28;20199;-77
2022/12/25 11:54:02;;;;;;;4.30;2.50;;;12.40;99.90;;;;;;4978417;28;20190;-78
2022/12/25 11:56:31;;;;;;;2.85;1.80;;;12.50;99.90;;;;;;4979021;28;20171;-78
2022/12/25 11:59:09;;;;;;;2.95;2.00;;;12.50;99.90;;;;;;4965792;28;20234;-78
2022/12/25 12:01:53;;;;;;;3.65;2.20;;;12.60;99.90;;;;;;4978910;28;20202;-78
2022/12/25 12:04:29;;;;;;;3.00;2.03;;;12.60;99.90;;;;;;4974206;28;20163;-77
2022/12/25 12:06:59;;;;;;;2.67;1.90;;;12.60;99.90;;;;;;4959562;28;20205;-77
2022/12/25 12:09:52;;;;;;;2.78;2.00;;;12.70;99.90;;;;;;4979203;28;20230;-77
2022/12/25 12:12:30;;;;;;;2.58;2.15;;;12.80;99.90;;;;;;4963120;28;20172;-78
2022/12/25 12:15:10;;;;;;;2.85;1.98;;;12.80;99.90;;;;;;4968147;28;20179;-78
2022/12/25 12:17:35;;;;;;;3.78;2.30;;;12.80;99.90;;;;;;4978900;28;20179;-77
2022/12/25 12:20:31;;;;;;;3.97;2.05;;;12.90;99.90;;;;;;4978925;28;20270;-78
2022/12/25 12:22:59;;;;;;;4.40;2.45;;;13.00;99.90;;;;;;4974043;28;20179;-77
2022/12/25 12:25:25;;;;;;;3.70;2.50;;;13.00;99.90;;;;;;4973712;28;20185;-78
2022/12/25 12:27:58;;;;;;;3.38;2.33;;;13.10;99.90;;;;;;4960110;28;20207;-77
2022/12/25 12:30:27;;;;;;;2.35;1.83;;;13.10;99.90;;;;;;4978526;28;20214;-78
2022/12/25 12:32:58;;;;;;;3.65;2.38;;;13.10;99.90;;;;;;4976126;28;20203;-76
2022/12/25 12:35:27;;;;;;;3.88;2.33;;;13.20;99.90;;;;;;4992422;28;20172;-76
2022/12/25 12:38:01;;;;;;;3.42;2.50;;;13.20;99.90;;;;;;4970208;28;20241;-78
2022/12/25 12:40:42;;;;;;;4.47;2.50;;;13.20;99.90;;;;;;4971819;28;20280;-77
2022/12/25 12:43:33;;;;;;;3.20;2.30;;;13.20;99.90;;;;;;4979025;28;20202;-78
2022/12/25 12:46:19;;;;;;;3.08;2.10;;;13.20;99.90;;;;;;4978372;28;20186;-78
2022/12/25 12:48:50;;;;;;;2.85;2.10;;;13.30;99.90;;;;;;4968975;28;20265;-77
2022/12/25 12:51:30;;;;;;;2.75;2.20;;;13.30;99.90;;;;;;4959614;28;20303;-78
2022/12/25 12:54:20;;;;;;;5.38;2.40;;;13.30;99.90;;;;;;4959241;28;20227;-77
2022/12/25 12:57:20;;;;;;;2.55;2.10;;;13.30;99.90;;;;;;4960824;28;20175;-76
2022/12/25 12:59:46;;;;;;;3.75;2.33;;;13.40;99.90;;;;;;4967036;28;20199;-77
2022/12/25 13:03:03;;;;;;;4.22;2.38;;;13.40;99.90;;;;;;4978393;28;20455;-78
2022/12/25 13:05:38;;;;;;;3.65;2.60;;;13.40;99.90;;;;;;4943110;28;20302;-78
2022/12/25 13:08:28;;;;;;;3.92;2.72;;;13.40;99.90;;;;;;4960483;28;20262;-78
2022/12/25 13:11:18;;;;;;;4.10;2.53;;;13.40;99.90;;;;;;4959363;28;20285;-76
2022/12/25 13:13:45;;;;;;;4.25;2.97;;;13.40;99.90;;;;;;4958939;28;20203;-75
2022/12/25 13:16:23;;;;;;;3.83;2.95;;;13.30;99.90;;;;;;4976952;28;20171;-78
2022/12/25 13:18:51;;;;;;;3.50;2.70;;;13.40;99.90;;;;;;4972262;28;20171;-78
2022/12/25 13:21:22;;;;;;;3.10;2.58;;;13.40;99.90;;;;;;4968507;28;20204;-78
2022/12/25 13:23:56;;;;;;;4.72;3.10;;;13.40;99.90;;;;;;4976184;28;20189;-78
2022/12/25 13:26:22;;;;;;;3.88;2.55;;;13.40;99.90;;;;;;4974390;28;20290;-78
2022/12/25 13:28:48;;;;;;;4.13;2.83;;;13.40;99.90;;;;;;4973311;28;20191;-78
2022/12/25 13:31:27;;;;;;;3.55;2.50;;;13.40;99.90;;;;;;4975201;28;20216;-78
2022/12/25 13:34:22;;;;;;;4.60;2.85;;;13.40;99.90;;;;;;4972897;28;20206;-78
2022/12/25 13:36:50;;;;;;;3.42;2.80;;;13.40;99.90;;;;;;4977582;28;20403;-78
2022/12/25 13:39:17;;;;;;;3.83;2.75;;;13.40;99.90;;;;;;4974784;28;20191;-76
2022/12/25 13:42:08;;;;;;;3.38;2.63;;;13.40;99.90;;;;;;4978298;28;20218;-78
2022/12/25 13:44:43;;;;;;;4.53;2.80;;;13.40;99.90;;;;;;4978634;28;20164;-78
2022/12/25 13:47:23;;;;;;;4.03;2.60;;;13.40;99.90;;;;;;4978350;28;20266;-78
2022/12/25 13:49:53;;;;;;;4.82;2.67;;;13.40;99.90;;;;;;4976811;28;20205;-78
2022/12/25 13:52:26;;;;;;;4.07;2.55;;;13.40;99.90;;;;;;4969469;28;20263;-78
2022/12/25 13:55:00;;;;;;;3.92;2.90;;;13.40;99.90;;;;;;4992063;28;20203;-78
2022/12/25 13:57:33;;;;;;;3.90;2.70;;;13.40;99.90;;;;;;4966386;28;20180;-77
2022/12/25 14:00:01;;;;;;;4.63;2.85;;;13.50;99.90;;;;;;4972710;28;20263;-78
2022/12/25 14:02:35;;;;;;;5.85;2.97;;;13.40;99.90;;;;;;4970478;28;20168;-78
2022/12/25 14:05:01;;;;;;;4.32;3.42;;;13.40;99.90;;;;;;4974812;28;20175;-78
2022/12/25 14:07:26;;;;;;;5.38;3.45;;;13.40;99.90;;;;;;4984866;28;20180;-77
2022/12/25 14:09:59;;;;;;;5.25;3.60;;;13.40;99.90;;;;;;4970019;28;20298;-79
2022/12/25 14:12:26;;;;;;;5.35;2.95;;;13.40;99.90;;;;;;4978423;28;20171;-79
2022/12/25 14:14:53;;;;;;;3.83;3.35;;;13.40;99.90;;;;;;4984128;28;20199;-78
2022/12/25 14:17:20;;;;;;;5.30;3.17;;;13.40;99.90;;;;;;4976977;28;20182;-78
2022/12/25 14:19:56;;;;;;;4.57;3.15;;;13.40;99.90;;;;;;4991830;28;20180;-78
2022/12/25 14:22:22;;;;;;;3.10;2.70;;;13.40;99.90;;;;;;4980495;28;20175;-78
2022/12/25 14:24:51;;;;;;;3.95;2.65;;;13.40;99.90;;;;;;4978965;28;20194;-78
2022/12/25 14:27:29;;;;;;;3.33;2.78;;;13.50;99.90;;;;;;4978192;28;20480;-78
2022/12/25 14:29:57;;;;;;;3.80;2.60;;;13.50;99.90;;;;;;4962047;28;20192;-78
2022/12/25 14:32:27;;;;;;;2.80;2.50;;;13.50;99.90;;;;;;4974311;28;20233;-78
2022/12/25 14:35:00;;;;;;;3.00;2.60;;;13.50;99.90;;;;;;4980826;28;20182;-79
2022/12/25 14:37:30;;;;;;;5.07;3.72;;;13.60;99.90;;;;;;4981214;28;20191;-79
2022/12/25 14:40:01;;;;;;;4.20;2.70;;;13.70;99.90;;;;;;4981200;28;20195;-78
2022/12/25 14:42:35;;;;;;;3.47;2.67;;;13.70;99.90;;;;;;4980926;28;20198;-78
2022/12/25 14:45:24;;;;;;;3.78;2.83;;;13.70;99.90;;;;;;4977768;28;20180;-78
2022/12/25 14:47:52;;;;;;;3.45;2.45;;;13.80;99.90;;;;;;4970374;28;20211;-80